1982 ARMELLE:BESSI_ARMELL (1981306S03096)


On this page: IBTrACS data - Map and Plots - Positions - Intensities - Original source data

Summary

Start Nov 1
End Nov 20
Basin SI
LMI 80 kt
Sources jtwc_sh
reunion
td9636
neumann
In WMO? Yes
Related storms 1981309S10090
Previous storm 1981 JOSE (NA)
Previous in basin 1982 ALEX (SI)
Concurrent storms 1981 MISSING (NI)
1981 JOSE (NA)
1982 ARMELLE (SI)
1981 KATRINA (NA)
1982 MISSING (SI)
1981 TD1110 (WP)
1981 HAZEN (WP)
1981 SUBTROP (NA)
1981 IRMA (WP)
1981 MISSING (NI)
1981 JEFF (WP)
Next in basin 1982 MISSING (SI)
Next storm 1981 KATRINA (NA)

top of page IBTrACS Data: File Access

No storm imagery available

top of page Plots:

Map of storm track will not appear if FTP is down
Time series of cyclone Maximum Sustained Wind will not appear if FTP is down
Time series of cyclone Minimum Central Pressure will not appear if FTP is down

top of page Track Data:Position

jtwc_sh reunion td9636 neumann
Date Lat Lon Lat Lon Lat Lon Lat Lon
1981-11-01 18:00:00 -3.0 96.3
1981-11-02 00:00:00 -3.5 96.2
1981-11-02 06:00:00 -4.0 96.0
1981-11-02 12:00:00 -4.6 95.8
1981-11-02 18:00:00 -5.0 95.5
1981-11-03 00:00:00 -5.9 95.1
1981-11-03 06:00:00 -6.5 94.5
1981-11-03 12:00:00 -6.7 94.3
1981-11-03 18:00:00 -8.6 92.9 -7.5 93.6
1981-11-04 00:00:00 -8.8 92.5 -8.7 92.6 -8.4 92.8
1981-11-04 06:00:00 -9.2 91.7 -9.3 91.7 -8.8 92.1
1981-11-04 12:00:00 -10.3 90.8 -10.2 90.7 -8.9 91.7
1981-11-04 18:00:00 -10.4 89.6 -8.9 91.3
1981-11-05 00:00:00 -9.8 88.4 -8.9 90.7
1981-11-05 06:00:00 -8.9 86.9 -8.9 90.1
1981-11-05 12:00:00 -8.1 85.3 -8.9 89.6
1981-11-05 18:00:00 -8.3 85.4 -9.0 89.0
1981-11-06 00:00:00 -9.7 87.4 -9.6 87.4 -10.0 88.0
1981-11-06 06:00:00 -10.4 88.8 -10.5 88.9 -10.1 87.7
1981-11-06 12:00:00 -10.1 88.9 -10.2 89.0 -10.2 87.2
1981-11-06 18:00:00 -10.0 88.3 -10.0 88.3 -10.2 87.1
1981-11-07 00:00:00 -10.2 87.2 -10.2 87.3 -10.2 87.0
1981-11-07 06:00:00 -10.7 86.8 -10.7 86.7 -10.2 86.6
1981-11-07 12:00:00 -11.7 87.0 -11.6 86.9 -10.3 86.2
1981-11-07 18:00:00 -12.2 87.1 -12.2 87.2 -10.4 86.0
jtwc_sh reunion td9636 neumann
1981-11-08 00:00:00 -12.4 87.1 -12.4 87.2 -10.5 85.8
1981-11-08 06:00:00 -12.5 86.8 -12.5 85.0 -12.6 86.7 -10.7 85.4
1981-11-08 12:00:00 -12.7 85.7 -12.9 84.8 -12.7 85.7 -11.0 85.0
1981-11-08 18:00:00 -12.7 85.0 -13.0 84.3 -12.6 85.1 -11.2 84.5
1981-11-09 00:00:00 -12.2 85.1 -13.0 83.9 -12.2 85.1 -11.1 84.0
1981-11-09 06:00:00 -12.0 84.7 -13.0 83.3 -12.0 84.6 -10.9 83.7
1981-11-09 12:00:00 -12.0 82.9 -12.7 83.0 -12.1 83.0 -10.7 83.5
1981-11-09 18:00:00 -11.8 82.2 -12.6 82.9 -11.8 82.2 -10.5 83.3
1981-11-10 00:00:00 -10.8 82.8 -12.4 82.5 -10.9 82.7 -10.2 83.0
1981-11-10 06:00:00 -10.4 82.9 -12.3 82.1 -10.3 83.0 -10.3 82.4
1981-11-10 12:00:00 -10.4 82.5 -12.5 81.6 -10.3 82.6 -10.4 81.7
1981-11-10 18:00:00 -10.4 82.0 -12.5 81.0 -10.4 82.1 -10.4 81.3
1981-11-11 00:00:00 -10.4 81.5 -12.4 80.5 -10.3 81.5 -10.4 81.0
1981-11-11 06:00:00 -10.4 80.7 -12.3 80.0 -10.5 80.7 -10.8 80.6
1981-11-11 12:00:00 -11.0 79.5 -12.0 79.6 -11.2 79.4 -11.2 79.3
1981-11-11 18:00:00 -12.0 78.0 -11.7 79.0 -12.0 78.0 -12.0 78.0
1981-11-12 00:00:00 -11.2 78.6 -11.2 78.6
1981-11-12 06:00:00 -11.0 78.0 -11.0 78.0
1981-11-12 12:00:00 -10.8 77.9 -10.8 77.9
1981-11-12 18:00:00 -10.8 77.7 -10.8 77.7
1981-11-13 00:00:00 -10.8 77.2 -10.8 77.2
1981-11-13 06:00:00 -11.0 77.0 -11.0 77.0
1981-11-13 12:00:00 -11.7 76.7 -11.7 76.7
1981-11-13 18:00:00 -12.2 76.1 -12.2 76.1
jtwc_sh reunion td9636 neumann
1981-11-14 00:00:00 -13.0 76.7 -13.0 76.7
1981-11-14 06:00:00 -14.0 75.0 -14.0 75.0
1981-11-14 12:00:00 -14.2 74.8 -14.2 74.8
1981-11-14 18:00:00 -14.4 74.6 -14.4 74.6
1981-11-15 00:00:00 -14.5 74.3 -14.5 74.3
1981-11-15 06:00:00 -14.5 74.0 -14.5 74.0
1981-11-15 12:00:00 -14.7 73.6 -14.7 73.6
1981-11-15 18:00:00 -14.5 72.8 -14.5 72.8
1981-11-16 00:00:00 -14.1 72.0 -14.1 72.0
1981-11-16 06:00:00 -14.0 71.0 -14.0 71.0
1981-11-16 12:00:00 -14.0 70.0 -14.0 70.0
1981-11-16 18:00:00 -13.9 69.1 -13.9 69.1
1981-11-17 00:00:00 -13.8 68.0 -13.8 68.0
1981-11-17 06:00:00 -13.8 67.0 -13.8 67.0
1981-11-17 12:00:00 -13.8 66.1 -13.8 66.1
1981-11-17 18:00:00 -13.8 65.1 -13.8 65.0
1981-11-18 00:00:00 -13.8 64.1 -13.8 64.1
1981-11-18 06:00:00 -13.8 63.3 -13.8 63.3
1981-11-18 12:00:00 -13.8 62.7 -13.8 62.7
1981-11-18 18:00:00 -13.8 61.9 -13.8 61.9
1981-11-19 00:00:00 -13.8 61.1 -13.8 61.1
1981-11-19 06:00:00 -13.8 60.3 -13.8 60.3
1981-11-19 12:00:00 -13.5 58.9 -13.5 58.9
1981-11-19 18:00:00 -13.4 57.7 -13.4 57.7
jtwc_sh reunion td9636 neumann
1981-11-20 00:00:00 -13.2 56.1 -13.2 56.1
1981-11-20 06:00:00 -13.0 54.2 -13.0 54.2

top of pageTrack Data:Intensity

jtwc_sh reunion td9636 neumann
Date Wind Pres Wind Pres Wind Pres Wind Pres
1981-11-01 18:00:00 15. 1007.
1981-11-02 00:00:00 15. 1007.
1981-11-02 06:00:00 15. 1007.
1981-11-02 12:00:00 15. 1007.
1981-11-02 18:00:00 15. 1006.
1981-11-03 00:00:00 15. 1006.
1981-11-03 06:00:00 20. 1005.
1981-11-03 12:00:00 20. 1005.
1981-11-03 18:00:00 55. 20. 1004.
1981-11-04 00:00:00 55. 55. 20. 1004.
1981-11-04 06:00:00 55. 55. 25. 1003.
1981-11-04 12:00:00 50. 50. 25. 1003.
1981-11-04 18:00:00 50. 25. 1002.
1981-11-05 00:00:00 50. 25. 1002.
1981-11-05 06:00:00 50. 25. 1001.
1981-11-05 12:00:00 40. 25. 1001.
1981-11-05 18:00:00 40. 30. 1000.
1981-11-06 00:00:00 45. 50. 30. 1000.
1981-11-06 06:00:00 50. 50. 35. 997.
1981-11-06 12:00:00 50. 50. 40. 994.
1981-11-06 18:00:00 50. 50. 40. 994.
1981-11-07 00:00:00 55. 55. 40. 994.
1981-11-07 06:00:00 55. 55. 40. 994.
1981-11-07 12:00:00 60. 65. 40. 994.
1981-11-07 18:00:00 65. 65. 40. 994.
jtwc_sh reunion td9636 neumann
1981-11-08 00:00:00 70. 70. 40. 994.
1981-11-08 06:00:00 70. 62. 966. 70. 40. 994.
1981-11-08 12:00:00 80. 80. 40. 994.
1981-11-08 18:00:00 80. 80. 45. 992.
1981-11-09 00:00:00 75. 70. 45. 990.
1981-11-09 06:00:00 70. 70. 45. 990.
1981-11-09 12:00:00 65. 65. 50. 989.
1981-11-09 18:00:00 65. 65. 50. 989.
1981-11-10 00:00:00 60. 55. 50. 988.
1981-11-10 06:00:00 55. 55. 50. 988.
1981-11-10 12:00:00 50. 50. 50. 988.
1981-11-10 18:00:00 50. 50. 50. 988.
1981-11-11 00:00:00 50. 50. 50. 988.
1981-11-11 06:00:00 50. 50. 50. 988.
1981-11-11 12:00:00 50. 55. 986.
1981-11-11 18:00:00 50. 60.
1981-11-12 00:00:00 60.
1981-11-12 06:00:00 65.
1981-11-12 12:00:00 65.
1981-11-12 18:00:00 65.
1981-11-13 00:00:00 65.
1981-11-13 06:00:00 52. 976. 65. 976.
1981-11-13 12:00:00 70.
1981-11-13 18:00:00 70.
jtwc_sh reunion td9636 neumann
1981-11-14 00:00:00 65.
1981-11-14 06:00:00 65.
1981-11-14 12:00:00 60.
1981-11-14 18:00:00 55.
1981-11-15 00:00:00 55.
1981-11-15 06:00:00 55.
1981-11-15 12:00:00 50.
1981-11-15 18:00:00 50.
1981-11-16 00:00:00 50.
1981-11-16 06:00:00 50.
1981-11-16 12:00:00 50.
1981-11-16 18:00:00 50.
1981-11-17 00:00:00 36. 991. 45. 991.
1981-11-17 06:00:00 36. 991. 45. 991.
1981-11-17 12:00:00 36. 991. 45. 991.
1981-11-17 18:00:00 36. 991. 45. 991.
1981-11-18 00:00:00 28. 997. 35. 997.
1981-11-18 06:00:00 28. 997. 35. 997.
1981-11-18 12:00:00 28. 997. 35. 997.
1981-11-18 18:00:00 24. 1000. 30. 1000.
1981-11-19 00:00:00 24. 1000. 30. 1000.
1981-11-19 06:00:00 24. 1000. 30. 1000.
1981-11-19 12:00:00 30.
1981-11-19 18:00:00 25.
jtwc_sh reunion td9636 neumann
1981-11-20 00:00:00 25.
1981-11-20 06:00:00 20. 25.

top of page Links to source data

Source Source file Format
jtwc_sh bsh031982.txt ATCF
reunion WMO-Best-Tracks.txt:Line=12140:armelle WMO (old format)
td9636 cons_worldwide_trop_cyclone_18710101-19891231-005:Line=12178 TD 9636
neumann tracks.sh:Storm=624:BESSI/ARMELL:E:BSH0382 HURDAT